NCRG

Rarotonga International Airport

Avarua, Samoa
TAF NCRG 182303Z 1900/1924 07008KT 9999 SCT018 BKN045 PROB40 TEMPO 1900/1906 5000 TSRA BKN012 FEW017CB PROB30 TEMPO 1906/1924 5000 TSRA BKN015 FEW017CB
Issued Valid From Valid To
Jan-18 @ 23:03 UTC
(3 hours ago)
Jan-19 @ 00:00 UTC
(2 hours ago)
Jan-20 @ 00:00 UTC
(in 22 hours)
Jan-19 @ 00:00 to Jan-20 @ 00:00
TAF NCRG 182303Z 1900/1924 07008KT 9999 SCT018 BKN045
Wind Visibility Clouds
70° at 8 knots 10,000+ meters
  • Scattered at 1,800' AGL
  • Broken at 4,500' AGL
Temporary  (Probability 40%) Jan-19 @ 00:00 to Jan-19 @ 06:00
PROB40 TEMPO 1900/1906 5000 TSRA BKN012 FEW017CB
Visibility Clouds Conditions
5,005 meters
  • Broken at 1,200' AGL
  • Few at 1,700' AGL
  • Thunderstorm
  • Rain
Temporary  (Probability 30%) Jan-19 @ 06:00 to Jan-20 @ 00:00
PROB30 TEMPO 1906/1924 5000 TSRA BKN015 FEW017CB
Visibility Clouds Conditions
5,005 meters
  • Broken at 1,500' AGL
  • Few at 1,700' AGL
  • Thunderstorm
  • Rain
TAF NCRG 182303Z 1900/1924 07008KT 9999 SCT018 BKN045 PROB40 TEMPO 1900/1906 5000 TSRA BKN012 FEW017CB PROB30 TEMPO 1906/1924 5000 TSRA BKN015 FEW017CB
Issued Jan-18 @ 23:03 UTC
(3 hours ago)
Valid From Jan-19 @ 00:00 UTC
(2 hours ago)
Valid To Jan-20 @ 00:00 UTC
(in 22 hours)
Jan-19 @ 00:00 - Jan-20 @ 00:00
Wind Visibility
70° at 8 knots 10,000+ meters
Clouds
  • Scattered at 1,800' AGL
  • Broken at 4,500' AGL
Probability 40% Temporary Jan-19 @ 00:00 - Jan-19 @ 06:00
Clouds
  • Broken at 1,200' AGL
  • Few at 1,700' AGL
Conditions
  • Thunderstorm
  • Rain
Probability 30% Temporary Jan-19 @ 06:00 - Jan-20 @ 00:00
Clouds
  • Broken at 1,500' AGL
  • Few at 1,700' AGL
Conditions
  • Thunderstorm
  • Rain